createdAt,value
2024-03-19T00:00:03.162Z,94473.30
2024-03-19T00:02:29.584Z,94473.77
2024-03-19T00:04:55.866Z,94473.30
2024-03-19T00:07:22.159Z,94472.12
2024-03-19T00:09:48.565Z,94476.81
2024-03-19T00:12:14.876Z,94471.77
2024-03-19T00:14:41.340Z,94475.98
2024-03-19T00:17:07.767Z,94467.91
2024-03-19T00:19:34.020Z,94473.53
2024-03-19T00:22:00.337Z,94472.59
2024-03-19T00:24:26.707Z,94472.74
2024-03-19T00:26:52.990Z,94468.88
2024-03-19T00:29:19.266Z,94473.53
2024-03-19T00:31:45.560Z,94468.64
2024-03-19T00:34:11.989Z,94466.89
2024-03-19T00:36:38.426Z,94463.49
2024-03-19T00:39:04.718Z,94463.49
2024-03-19T00:41:31.008Z,94461.06
2024-03-19T00:43:57.319Z,94463.17
2024-03-19T00:46:23.845Z,94455.71
2024-03-19T00:48:50.269Z,94452.63
2024-03-19T00:51:16.517Z,94448.77
2024-03-19T00:53:42.996Z,94459.57
2024-03-19T00:56:09.760Z,94454.27
2024-03-19T00:58:36.264Z,94450.67
2024-03-19T01:01:02.465Z,94455.83
2024-03-19T01:03:28.969Z,94453.60
2024-03-19T01:05:55.416Z,94451.97
2024-03-19T01:08:21.679Z,94448.57
2024-03-19T01:10:48.037Z,94451.29
2024-03-19T01:13:14.318Z,94452.23
2024-03-19T01:15:40.717Z,94453.05
2024-03-19T01:18:06.987Z,94451.87
2024-03-19T01:20:33.289Z,94448.98
2024-03-19T01:23:00.498Z,94442.39
2024-03-19T01:25:26.822Z,94446.41
2024-03-19T01:27:53.412Z,94443.83
2024-03-19T01:30:19.701Z,94436.58
2024-03-19T01:32:46.036Z,94437.39
2024-03-19T01:35:12.318Z,94439.27
2024-03-19T01:37:38.728Z,94434.27
2024-03-19T01:40:05.176Z,94432.01
2024-03-19T01:42:31.617Z,94430.41
2024-03-19T01:44:57.875Z,94424.08
2024-03-19T01:47:24.263Z,94420.69
2024-03-19T01:49:50.691Z,94415.22
2024-03-19T01:52:17.049Z,94418.26
2024-03-19T01:54:43.419Z,94410.53
2024-03-19T01:57:09.770Z,94408.89
2024-03-19T01:59:36.199Z,94417.09
2024-03-19T02:02:02.477Z,94411.63
2024-03-19T02:04:28.844Z,94416.62
2024-03-19T02:06:55.187Z,94409.05
2024-03-19T02:09:21.505Z,94412.91
2024-03-19T02:11:47.859Z,94404.02
2024-03-19T02:14:14.283Z,94403.08
2024-03-19T02:16:40.632Z,94406.12
2024-03-19T02:19:07.041Z,94399.80
2024-03-19T02:21:33.385Z,94395.14
2024-03-19T02:23:59.655Z,94391.61
2024-03-19T02:26:26.127Z,94393.36
2024-03-19T02:28:52.405Z,94391.28
2024-03-19T02:31:18.727Z,94392.42
2024-03-19T02:33:45.128Z,94396.75
2024-03-19T02:36:11.585Z,94399.48
2024-03-19T02:38:37.989Z,94397.48
2024-03-19T02:41:04.261Z,94401.23
2024-03-19T02:43:30.552Z,94398.77
2024-03-19T02:45:56.815Z,94398.66
2024-03-19T02:48:23.205Z,94397.84
2024-03-19T02:50:49.646Z,94400.33
2024-03-19T02:53:15.913Z,94399.86
2024-03-19T02:55:42.321Z,94396.00
2024-03-19T02:58:08.646Z,94399.74
2024-03-19T03:00:35.059Z,94402.09
2024-03-19T03:03:01.343Z,94411.09
2024-03-19T03:05:27.745Z,94405.63
2024-03-19T03:07:54.167Z,94407.03
2024-03-19T03:10:20.475Z,94405.27
2024-03-19T03:12:46.831Z,94404.80
2024-03-19T03:15:13.274Z,94403.17
2024-03-19T03:17:39.584Z,94403.64
2024-03-19T03:20:05.804Z,94398.64
2024-03-19T03:22:32.089Z,94398.64
2024-03-19T03:24:58.375Z,94392.88
2024-03-19T03:27:24.649Z,94394.77
2024-03-19T03:29:51.025Z,94387.64
2024-03-19T03:32:17.497Z,94391.64
2024-03-19T03:34:43.835Z,94394.57
2024-03-19T03:37:13.986Z,94394.69
2024-03-19T03:39:36.746Z,94403.08
2024-03-19T03:42:03.115Z,94396.80
2024-03-19T03:44:29.536Z,94397.61
2024-03-19T03:46:55.976Z,94400.77
2024-03-19T03:49:22.465Z,94397.27
2024-03-19T03:51:48.710Z,94396.91
2024-03-19T03:54:15.001Z,94407.70
2024-03-19T03:56:41.445Z,94400.77
2024-03-19T03:59:07.683Z,94400.45
2024-03-19T04:01:34.149Z,94405.72
2024-03-19T04:04:00.485Z,94411.22
2024-03-19T04:06:26.921Z,94405.72
2024-03-19T04:08:53.289Z,94409.46
2024-03-19T04:11:19.686Z,94412.16
2024-03-19T04:13:46.124Z,94412.30
2024-03-19T04:16:12.556Z,94415.34
2024-03-19T04:18:39.038Z,94418.73
2024-03-19T04:21:05.243Z,94420.34
2024-03-19T04:23:31.524Z,94420.23
2024-03-19T04:25:57.786Z,94411.95
2024-03-19T04:28:24.181Z,94413.44
2024-03-19T04:30:50.531Z,94420.02
2024-03-19T04:33:16.973Z,94427.95
2024-03-19T04:35:45.747Z,94424.44
2024-03-19T04:38:09.684Z,94428.16
2024-03-19T04:40:35.982Z,94427.69
2024-03-19T04:43:02.378Z,94433.98
2024-03-19T04:45:28.647Z,94438.34
2024-03-19T04:47:55.210Z,94438.66
2024-03-19T04:50:21.425Z,94434.80
2024-03-19T04:52:47.823Z,94435.77
2024-03-19T04:55:14.091Z,94435.61
2024-03-19T04:57:40.479Z,94441.79
2024-03-19T05:00:06.750Z,94441.94
2024-03-19T05:02:33.089Z,94443.69
2024-03-19T05:04:59.369Z,94452.00
2024-03-19T05:07:25.747Z,94454.66
2024-03-19T05:09:51.996Z,94454.92
2024-03-19T05:12:18.478Z,94453.84
2024-03-19T05:14:44.737Z,94452.09
2024-03-19T05:17:11.042Z,94452.34
2024-03-19T05:19:37.362Z,94455.83
2024-03-19T05:22:03.635Z,94456.77
2024-03-19T05:24:30.022Z,94460.37
2024-03-19T05:26:56.294Z,94459.55
2024-03-19T05:29:22.624Z,94465.16
2024-03-19T05:31:49.086Z,94466.95
2024-03-19T05:34:15.635Z,94469.27
2024-03-19T05:36:41.972Z,94466.55
2024-03-19T05:39:08.284Z,94469.58
2024-03-19T05:41:34.605Z,94474.47
2024-03-19T05:44:02.076Z,94469.20
2024-03-19T05:46:27.203Z,94472.92
2024-03-19T05:48:53.488Z,94472.13
2024-03-19T05:51:19.832Z,94475.79
2024-03-19T05:53:46.101Z,94473.77
2024-03-19T05:56:12.432Z,94473.30
2024-03-19T05:58:38.719Z,94474.73
2024-03-19T06:01:05.012Z,94471.90
2024-03-19T06:03:31.338Z,94472.57
2024-03-19T06:05:57.618Z,94476.17
2024-03-19T06:08:23.988Z,94473.41
2024-03-19T06:10:50.244Z,94480.65
2024-03-19T06:13:16.565Z,94478.45
2024-03-19T06:15:42.842Z,94478.08
2024-03-19T06:18:09.222Z,94487.09
2024-03-19T06:20:35.562Z,94484.73
2024-03-19T06:23:01.891Z,94491.45
2024-03-19T06:25:28.171Z,94498.23
2024-03-19T06:27:54.492Z,94494.38
2024-03-19T06:30:20.744Z,94501.39
2024-03-19T06:32:47.118Z,94497.23
2024-03-19T06:35:13.413Z,94500.20
2024-03-19T06:37:39.692Z,94506.72
2024-03-19T06:40:06.107Z,94505.17
2024-03-19T06:42:32.348Z,94511.27
2024-03-19T06:44:58.626Z,94509.39
2024-03-19T06:47:24.949Z,94518.14
2024-03-19T06:49:51.276Z,94522.27
2024-03-19T06:52:17.494Z,94518.84
2024-03-19T06:54:45.131Z,94520.84
2024-03-19T06:57:10.103Z,94524.50
2024-03-19T06:59:36.389Z,94523.67
2024-03-19T07:02:02.702Z,94528.55
2024-03-19T07:04:29.001Z,94523.15
2024-03-19T07:06:55.417Z,94532.16
2024-03-19T07:09:21.833Z,94536.27
2024-03-19T07:11:48.127Z,94534.52
2024-03-19T07:14:14.434Z,94538.43
2024-03-19T07:16:40.750Z,94537.01
2024-03-19T07:19:07.124Z,94539.45
2024-03-19T07:21:33.360Z,94539.72
2024-03-19T07:23:59.657Z,94546.31
2024-03-19T07:26:25.988Z,94540.34
2024-03-19T07:28:52.372Z,94547.20
2024-03-19T07:31:18.647Z,94554.06
2024-03-19T07:33:45.026Z,94558.95
2024-03-19T07:36:11.313Z,94562.05
2024-03-19T07:38:37.633Z,94562.56
2024-03-19T07:41:03.971Z,94564.51
2024-03-19T07:43:30.289Z,94573.13
2024-03-19T07:45:56.657Z,94545.54
2024-03-19T07:48:22.930Z,94570.56
2024-03-19T07:50:49.272Z,94581.63
2024-03-19T07:53:17.153Z,94583.27
2024-03-19T07:55:41.877Z,94584.82
2024-03-19T07:58:08.195Z,94586.86
2024-03-19T08:00:34.474Z,94586.52
2024-03-19T08:03:00.827Z,94589.64
2024-03-19T08:05:27.942Z,94598.06
2024-03-19T08:07:53.419Z,94592.78
2024-03-19T08:10:19.711Z,94592.11
2024-03-19T08:12:46.018Z,94595.63
2024-03-19T08:15:12.384Z,94597.66
2024-03-19T08:17:38.645Z,94605.05
2024-03-19T08:20:04.978Z,94599.34
2024-03-19T08:22:31.382Z,94596.66
2024-03-19T08:24:57.701Z,94608.57
2024-03-19T08:27:24.126Z,94605.75
2024-03-19T08:29:56.597Z,94605.73
2024-03-19T08:32:16.910Z,94613.48
2024-03-19T08:34:43.371Z,94606.95
2024-03-19T08:37:09.703Z,94611.98
2024-03-19T08:39:36.085Z,94617.33
2024-03-19T08:42:05.255Z,94619.67
2024-03-19T08:44:29.053Z,94618.64
2024-03-19T08:46:55.339Z,94619.59
2024-03-19T08:49:21.649Z,94620.41
2024-03-19T08:51:47.953Z,94614.63
2024-03-19T08:54:14.480Z,94625.70
2024-03-19T08:56:40.559Z,94627.22
2024-03-19T08:59:06.923Z,94628.90
2024-03-19T09:01:33.263Z,94630.03
2024-03-19T09:03:59.528Z,94631.14
2024-03-19T09:06:25.866Z,94634.47
2024-03-19T09:08:52.221Z,94642.41
2024-03-19T09:11:20.599Z,94643.08
2024-03-19T09:13:44.915Z,94641.86
2024-03-19T09:16:11.291Z,94645.19
2024-03-19T09:18:37.667Z,94644.80
2024-03-19T09:21:04.013Z,94653.88
2024-03-19T09:23:30.339Z,94656.26
2024-03-19T09:25:56.617Z,94659.27
2024-03-19T09:28:22.994Z,94658.09
2024-03-19T09:30:49.317Z,94666.19
2024-03-19T09:33:15.650Z,94664.20
2024-03-19T09:35:41.953Z,94664.47
2024-03-19T09:38:08.272Z,94653.48
2024-03-19T09:40:34.666Z,94665.09
2024-03-19T09:43:01.019Z,94663.69
2024-03-19T09:45:27.312Z,94667.05
2024-03-19T09:47:53.559Z,94669.98
2024-03-19T09:50:19.921Z,94669.98
2024-03-19T09:52:46.308Z,94673.17
2024-03-19T09:55:12.538Z,94674.59
2024-03-19T09:57:38.895Z,94678.27
2024-03-19T10:00:05.302Z,94670.25
2024-03-19T10:02:31.631Z,94674.23
2024-03-19T10:04:57.857Z,94682.13
2024-03-19T10:07:24.160Z,94675.68
2024-03-19T10:09:50.445Z,94675.95
2024-03-19T10:12:16.753Z,94678.65
2024-03-19T10:14:43.081Z,94680.67
2024-03-19T10:17:09.399Z,94678.88
2024-03-19T10:19:35.657Z,94673.64
2024-03-19T10:22:02.000Z,94680.67
2024-03-19T10:24:28.360Z,94672.06
2024-03-19T10:26:54.877Z,94667.45
2024-03-19T10:29:20.947Z,94668.55
2024-03-19T10:31:47.311Z,94663.92
2024-03-19T10:34:13.634Z,94660.81
2024-03-19T10:36:39.908Z,94662.03
2024-03-19T10:39:06.378Z,94669.22
2024-03-19T10:41:32.612Z,94656.44
2024-03-19T10:43:59.141Z,94658.70
2024-03-19T10:46:25.429Z,94661.05
2024-03-19T10:48:51.750Z,94669.06
2024-03-19T10:51:18.123Z,94667.11
2024-03-19T10:53:44.358Z,94641.13
2024-03-19T10:56:10.738Z,94667.45
2024-03-19T10:58:37.174Z,94660.38
2024-03-19T11:01:03.559Z,94655.14
2024-03-19T11:03:29.896Z,94653.94
2024-03-19T11:05:56.313Z,94650.21
2024-03-19T11:08:22.584Z,94649.86
2024-03-19T11:10:49.091Z,94649.39
2024-03-19T11:13:15.349Z,94649.52
2024-03-19T11:15:41.639Z,94647.63
2024-03-19T11:18:07.958Z,94642.47
2024-03-19T11:20:34.336Z,94635.75
2024-03-19T11:23:00.765Z,94641.50
2024-03-19T11:25:27.199Z,94636.54
2024-03-19T11:27:53.465Z,94637.51
2024-03-19T11:30:19.788Z,94640.76
2024-03-19T11:32:46.225Z,94638.80
2024-03-19T11:35:12.566Z,94632.67
2024-03-19T11:37:39.035Z,94629.84
2024-03-19T11:40:05.464Z,94626.92
2024-03-19T11:42:31.747Z,94622.58
2024-03-19T11:44:58.185Z,94623.39
2024-03-19T11:47:24.421Z,94616.98
2024-03-19T11:49:50.812Z,94619.45
2024-03-19T11:52:17.099Z,94606.94
2024-03-19T11:54:43.487Z,94606.12
2024-03-19T11:57:09.774Z,94606.74
2024-03-19T11:59:36.133Z,94604.91
2024-03-19T12:02:02.443Z,94594.77
2024-03-19T12:04:28.828Z,94591.99
2024-03-19T12:06:55.109Z,94592.47
2024-03-19T12:09:21.400Z,94582.88
2024-03-19T12:11:47.784Z,94584.88
2024-03-19T12:14:14.233Z,94584.16
2024-03-19T12:16:40.541Z,94580.36
2024-03-19T12:19:06.912Z,94579.50
2024-03-19T12:21:33.330Z,94545.45
2024-03-19T12:23:59.789Z,94571.13
2024-03-19T12:26:26.088Z,94571.95
2024-03-19T12:28:52.578Z,94571.25
2024-03-19T12:31:18.978Z,94573.09
2024-03-19T12:33:45.179Z,94565.84
2024-03-19T12:36:11.778Z,94568.46
2024-03-19T12:38:38.117Z,94561.69
2024-03-19T12:41:04.373Z,94559.11
2024-03-19T12:43:30.865Z,94555.90
2024-03-19T12:45:57.261Z,94558.01
2024-03-19T12:48:23.569Z,94554.61
2024-03-19T12:50:49.897Z,94554.95
2024-03-19T12:53:16.243Z,94549.25
2024-03-19T12:55:42.669Z,94547.69
2024-03-19T12:58:09.000Z,94549.23
2024-03-19T13:00:35.302Z,94546.45
2024-03-19T13:03:01.681Z,94549.04
2024-03-19T13:05:27.934Z,94545.20
2024-03-19T13:07:54.390Z,94541.08
2024-03-19T13:10:20.616Z,94545.20
2024-03-19T13:12:47.037Z,94540.26
2024-03-19T13:15:13.268Z,94534.34
2024-03-19T13:17:39.566Z,94535.03
2024-03-19T13:20:05.952Z,94534.59
2024-03-19T13:22:32.519Z,94532.01
2024-03-19T13:24:58.951Z,94525.61
2024-03-19T13:27:25.210Z,94531.73
2024-03-19T13:29:51.548Z,94531.88
2024-03-19T13:32:17.778Z,94535.28
2024-03-19T13:34:44.920Z,94530.44
2024-03-19T13:37:11.311Z,94530.12
2024-03-19T13:39:37.617Z,94538.18
2024-03-19T13:42:04.156Z,94533.52
2024-03-19T13:44:30.509Z,94534.12
2024-03-19T13:46:56.926Z,94537.14
2024-03-19T13:49:23.271Z,94543.13
2024-03-19T13:51:49.700Z,94544.27
2024-03-19T13:54:15.993Z,94539.25
2024-03-19T13:56:43.796Z,94547.47
2024-03-19T13:59:08.659Z,94536.33
2024-03-19T14:01:35.080Z,94539.73
2024-03-19T14:04:01.452Z,94544.14
2024-03-19T14:06:27.889Z,94544.27
2024-03-19T14:08:54.333Z,94542.91
2024-03-19T14:11:20.645Z,94543.06
2024-03-19T14:13:46.959Z,94545.17
2024-03-19T14:16:13.483Z,94552.10
2024-03-19T14:18:40.031Z,94554.21
2024-03-19T14:21:06.335Z,94555.22
2024-03-19T14:23:33.246Z,94552.64
2024-03-19T14:25:59.706Z,94554.53
2024-03-19T14:28:25.989Z,94558.41
2024-03-19T14:30:52.479Z,94560.98
2024-03-19T14:33:20.470Z,94562.75
2024-03-19T14:35:45.087Z,94559.22
2024-03-19T14:38:11.508Z,94566.84
2024-03-19T14:40:38.008Z,94567.79
2024-03-19T14:43:04.479Z,94570.30
2024-03-19T14:45:30.839Z,94575.00
2024-03-19T14:48:06.499Z,94570.18
2024-03-19T14:50:23.542Z,94571.47
2024-03-19T14:52:49.933Z,94577.70
2024-03-19T14:55:16.360Z,94570.30
2024-03-19T14:57:42.603Z,94575.59
2024-03-19T15:00:09.061Z,94583.81
2024-03-19T15:02:35.447Z,94583.94
2024-03-19T15:05:01.767Z,94588.86
2024-03-19T15:07:28.222Z,94585.45
2024-03-19T15:09:54.631Z,94587.09
2024-03-19T15:12:21.114Z,94588.98
2024-03-19T15:14:47.646Z,94592.31
2024-03-19T15:17:14.036Z,94597.01
2024-03-19T15:19:40.438Z,94599.12
2024-03-19T15:22:06.747Z,94608.75
2024-03-19T15:24:33.126Z,94610.73
2024-03-19T15:26:59.564Z,94614.73
2024-03-19T15:29:25.835Z,94616.02
2024-03-19T15:31:52.122Z,94615.20
2024-03-19T15:34:18.430Z,94618.26
2024-03-19T15:36:44.777Z,94616.30
2024-03-19T15:39:11.241Z,94620.80
2024-03-19T15:41:37.620Z,94628.08
2024-03-19T15:44:03.923Z,94631.45
2024-03-19T15:46:30.313Z,94630.44
2024-03-19T15:48:56.741Z,94639.47
2024-03-19T15:51:23.043Z,94639.94
2024-03-19T15:53:49.388Z,94639.75
2024-03-19T15:56:15.824Z,94641.39
2024-03-19T15:58:42.125Z,94641.78
2024-03-19T16:01:08.419Z,94642.13
2024-03-19T16:03:34.727Z,94648.59
2024-03-19T16:06:01.154Z,94650.35
2024-03-19T16:08:27.485Z,94647.42
2024-03-19T16:10:53.819Z,94656.45
2024-03-19T16:13:20.083Z,94653.88
2024-03-19T16:15:46.462Z,94665.02
2024-03-19T16:18:12.719Z,94670.45
2024-03-19T16:20:39.125Z,94673.73
2024-03-19T16:23:05.383Z,94676.44
2024-03-19T16:25:31.857Z,94678.55
2024-03-19T16:27:58.240Z,94681.25
2024-03-19T16:30:24.643Z,94688.33
2024-03-19T16:32:51.095Z,94692.67
2024-03-19T16:35:17.604Z,94699.40
2024-03-19T16:37:46.240Z,94698.58
2024-03-19T16:40:10.421Z,94701.04
2024-03-19T16:42:36.685Z,94709.26
2024-03-19T16:45:03.134Z,94713.95
2024-03-19T16:47:29.400Z,94712.31
2024-03-19T16:49:55.869Z,94721.34
2024-03-19T16:52:22.228Z,94724.20
2024-03-19T16:54:48.579Z,94726.03
2024-03-19T16:57:14.914Z,94724.66
2024-03-19T16:59:41.445Z,94733.38
2024-03-19T17:02:07.946Z,94728.45
2024-03-19T17:04:34.220Z,94732.00
2024-03-19T17:07:00.490Z,94738.73
2024-03-19T17:09:26.874Z,94737.91
2024-03-19T17:11:53.200Z,94745.77
2024-03-19T17:14:19.445Z,94754.68
2024-03-19T17:16:45.848Z,94760.78
2024-03-19T17:19:12.185Z,94763.98
2024-03-19T17:21:38.499Z,94766.36
2024-03-19T17:24:04.851Z,94774.69
2024-03-19T17:26:31.163Z,94768.23
2024-03-19T17:28:57.604Z,94775.89
2024-03-19T17:31:24.043Z,94786.56
2024-03-19T17:33:50.323Z,94788.47
2024-03-19T17:36:16.577Z,94793.16
2024-03-19T17:38:42.857Z,94794.57
2024-03-19T17:41:09.162Z,94801.96
2024-03-19T17:43:35.589Z,94802.92
2024-03-19T17:46:01.845Z,94807.27
2024-03-19T17:48:28.127Z,94804.48
2024-03-19T17:50:54.486Z,94813.62
2024-03-19T17:53:20.903Z,94816.67
2024-03-19T17:55:47.241Z,94826.88
2024-03-19T17:58:13.733Z,94824.88
2024-03-19T18:00:40.116Z,94835.20
2024-03-19T18:03:06.557Z,94840.98
2024-03-19T18:05:32.981Z,94845.46
2024-03-19T18:07:59.256Z,94846.87
2024-03-19T18:10:25.671Z,94851.67
2024-03-19T18:12:51.949Z,94854.40
2024-03-19T18:15:18.224Z,94861.31
2024-03-19T18:17:44.626Z,94864.01
2024-03-19T18:20:10.937Z,94865.19
2024-03-19T18:22:37.195Z,94872.92
2024-03-19T18:25:03.613Z,94871.86
2024-03-19T18:27:29.919Z,94876.67
2024-03-19T18:29:56.287Z,94881.76
2024-03-19T18:32:22.711Z,94882.44
2024-03-19T18:34:49.084Z,94890.29
2024-03-19T18:37:15.473Z,94894.41
2024-03-19T18:39:41.913Z,94902.97
2024-03-19T18:42:08.377Z,94903.44
2024-03-19T18:44:34.789Z,94909.89
2024-03-19T18:47:02.354Z,94918.02
2024-03-19T18:49:27.665Z,94918.34
2024-03-19T18:51:53.954Z,94913.69
2024-03-19T18:54:20.298Z,94917.67
2024-03-19T18:56:46.728Z,94925.87
2024-03-19T18:59:13.069Z,94931.50
2024-03-19T19:01:39.562Z,94930.70
2024-03-19T19:04:05.783Z,94931.42
2024-03-19T19:06:32.068Z,94932.11
2024-03-19T19:08:58.585Z,94942.89
2024-03-19T19:11:24.876Z,94936.59
2024-03-19T19:13:51.162Z,94938.92
2024-03-19T19:16:17.645Z,94948.44
2024-03-19T19:18:44.062Z,94951.34
2024-03-19T19:21:10.293Z,94955.82
2024-03-19T19:23:36.736Z,94953.49
2024-03-19T19:26:03.115Z,94967.53
2024-03-19T19:28:29.390Z,94967.67
2024-03-19T19:30:55.665Z,94967.78
2024-03-19T19:33:22.107Z,94968.25
2024-03-19T19:35:48.514Z,94970.97
2024-03-19T19:38:14.789Z,94971.91
2024-03-19T19:40:41.176Z,94977.53
2024-03-19T19:43:07.515Z,94975.77
2024-03-19T19:45:33.799Z,94981.53
2024-03-19T19:48:00.137Z,94986.80
2024-03-19T19:50:26.361Z,94986.47
2024-03-19T19:52:52.640Z,94991.38
2024-03-19T19:55:18.932Z,94993.73
2024-03-19T19:57:45.304Z,94994.34
2024-03-19T20:00:11.716Z,94997.75
2024-03-19T20:02:38.232Z,94999.14
2024-03-19T20:05:05.885Z,95007.95
2024-03-19T20:07:31.026Z,95007.59
2024-03-19T20:09:57.402Z,94996.23
2024-03-19T20:12:23.647Z,95009.95
2024-03-19T20:14:50.085Z,95005.72
2024-03-19T20:17:16.524Z,95001.27
2024-03-19T20:19:42.955Z,95000.13
2024-03-19T20:22:09.437Z,95004.92
2024-03-19T20:24:35.916Z,95004.23
2024-03-19T20:27:02.361Z,95004.47
2024-03-19T20:29:28.579Z,95008.92
2024-03-19T20:31:54.942Z,95008.67
2024-03-19T20:34:21.451Z,95016.17
2024-03-19T20:36:47.814Z,95014.20
2024-03-19T20:39:14.156Z,95017.02
2024-03-19T20:41:40.602Z,95021.11
2024-03-19T20:44:06.998Z,95022.53
2024-03-19T20:46:36.104Z,95022.72
2024-03-19T20:49:02.569Z,95032.02
2024-03-19T20:51:31.182Z,95028.72
2024-03-19T20:53:55.148Z,95032.34
2024-03-19T20:56:21.441Z,95036.20
2024-03-19T20:58:47.857Z,95037.63
2024-03-19T21:01:14.188Z,95037.27
2024-03-19T21:03:40.616Z,95051.55
2024-03-19T21:06:06.905Z,95043.48
2024-03-19T21:08:33.168Z,95049.56
2024-03-19T21:10:59.435Z,95048.28
2024-03-19T21:13:25.835Z,95051.78
2024-03-19T21:15:52.267Z,95050.62
2024-03-19T21:18:18.572Z,95053.20
2024-03-19T21:20:44.797Z,95058.13
2024-03-19T21:23:11.107Z,95051.33
2024-03-19T21:25:37.404Z,95056.48
2024-03-19T21:28:03.662Z,95053.68
2024-03-19T21:30:30.043Z,95065.27
2024-03-19T21:32:56.599Z,95064.55
2024-03-19T21:35:22.927Z,95062.80
2024-03-19T21:37:49.180Z,95064.91
2024-03-19T21:40:15.497Z,95072.42
2024-03-19T21:42:41.900Z,95069.94
2024-03-19T21:47:34.457Z,95074.27
2024-03-19T21:50:00.790Z,95077.91
2024-03-19T21:52:27.068Z,95076.63
2024-03-19T21:54:53.448Z,95079.43
2024-03-19T21:57:19.772Z,95079.43
2024-03-19T21:59:46.121Z,95087.16
2024-03-19T22:02:12.538Z,95083.89
2024-03-19T22:04:38.987Z,95086.34
2024-03-19T22:07:05.272Z,95087.98
2024-03-19T22:09:31.583Z,95081.55
2024-03-19T22:11:57.953Z,95087.03
2024-03-19T22:14:24.243Z,95088.09
2024-03-19T22:16:50.633Z,95085.65
2024-03-19T22:19:16.911Z,95084.00
2024-03-19T22:21:43.184Z,95084.09
2024-03-19T22:24:09.504Z,95087.63
2024-03-19T22:26:35.830Z,95084.09
2024-03-19T22:29:02.132Z,95083.77
2024-03-19T22:31:28.435Z,95081.30
2024-03-19T22:33:54.695Z,95087.38
2024-03-19T22:36:21.163Z,95091.23
2024-03-19T22:38:47.448Z,95090.54
2024-03-19T22:41:13.826Z,95091.96
2024-03-19T22:43:40.265Z,95087.27
2024-03-19T22:46:06.769Z,95097.44
2024-03-19T22:48:33.131Z,95093.25
2024-03-19T22:50:59.569Z,95093.72
2024-03-19T22:53:25.887Z,95100.25
2024-03-19T22:55:52.217Z,95107.74
2024-03-19T22:58:18.548Z,95099.09
2024-03-19T23:00:44.836Z,95109.03
2024-03-19T23:03:11.112Z,95110.91
2024-03-19T23:05:37.433Z,95112.20
2024-03-19T23:08:03.692Z,95111.94
2024-03-19T23:10:30.102Z,95114.41
2024-03-19T23:12:56.429Z,95118.05
2024-03-19T23:15:22.948Z,95117.09
2024-03-19T23:17:49.189Z,95114.28
2024-03-19T23:20:15.648Z,95113.36
2024-03-19T23:22:42.068Z,95108.77
2024-03-19T23:25:08.534Z,95107.61
2024-03-19T23:27:34.757Z,95109.36
2024-03-19T23:30:01.136Z,95113.22
2024-03-19T23:32:27.597Z,95112.39
2024-03-19T23:34:54.031Z,95114.28
2024-03-19T23:37:20.459Z,95114.73
2024-03-19T23:39:46.765Z,95110.52
2024-03-19T23:42:13.221Z,95108.41
2024-03-19T23:44:39.508Z,95105.95
2024-03-19T23:47:05.883Z,95097.88
2024-03-19T23:49:32.324Z,95102.45
2024-03-19T23:52:01.045Z,95099.06
2024-03-19T23:54:27.330Z,95101.73
2024-03-19T23:56:53.607Z,95100.67
2024-03-19T23:59:20.018Z,95095.42
